Terminal Aerodrome Forecast
Issued by NWS Kansas City/Pleasant Hill, MO

Home | Current Version | Previous Version | Text Only | Print | Product List | Glossary On
Versions: 1 2 3 4 5 6 7 8 9 10 11 12 13 14 15
931
FTUS43 KEAX 270520
TAFMCI
TAF
KMCI 270520Z 2706/2806 VRB05KT P6SM FEW050
     FM271600 12011KT P6SM BKN030
     FM272100 11012KT 5SM -TSRA BKN035 OVC050CB
     FM280000 10008KT P6SM VCTS BKN040 OVC050CB
     FM280400 34007KT P6SM OVC030=

USA.gov is the U.S. government's official web portal to all federal, state and local government web resources and services.